sensor_id;sensor_type;location;lat;lon;timestamp;pressure;altitude;pressure_sealevel;temperature;humidity
13050;BME280;6591;51.446;5.404;2023-04-25T00:02:26;100802.66;;;13.60;51.58
13050;BME280;6591;51.446;5.404;2023-04-25T00:04:53;100801.72;;;13.61;51.46
13050;BME280;6591;51.446;5.404;2023-04-25T00:07:21;100796.41;;;13.61;51.83
13050;BME280;6591;51.446;5.404;2023-04-25T00:09:48;100805.34;;;13.60;51.75
13050;BME280;6591;51.446;5.404;2023-04-25T00:12:15;100812.47;;;13.59;51.51
13050;BME280;6591;51.446;5.404;2023-04-25T00:14:42;100808.94;;;13.58;51.66
13050;BME280;6591;51.446;5.404;2023-04-25T00:17:10;100814.28;;;13.58;51.73
13050;BME280;6591;51.446;5.404;2023-04-25T00:19:38;100822.44;;;13.55;51.70
13050;BME280;6591;51.446;5.404;2023-04-25T00:22:04;100814.56;;;13.54;51.40
13050;BME280;6591;51.446;5.404;2023-04-25T00:24:32;100818.09;;;13.54;51.50
13050;BME280;6591;51.446;5.404;2023-04-25T00:26:59;100812.84;;;13.53;51.48
13050;BME280;6591;51.446;5.404;2023-04-25T00:29:26;100813.03;;;13.50;51.50
13050;BME280;6591;51.446;5.404;2023-04-25T00:31:53;100815.69;;;13.50;51.59
13050;BME280;6591;51.446;5.404;2023-04-25T00:34:20;100814.03;;;13.47;51.53
13050;BME280;6591;51.446;5.404;2023-04-25T00:36:47;100811.56;;;13.44;51.40
13050;BME280;6591;51.446;5.404;2023-04-25T00:39:14;100817.66;;;13.46;51.63
13050;BME280;6591;51.446;5.404;2023-04-25T00:41:41;100815.00;;;13.46;51.78
13050;BME280;6591;51.446;5.404;2023-04-25T00:44:11;100816.03;;;13.44;51.45
13050;BME280;6591;51.446;5.404;2023-04-25T00:46:39;100807.25;;;13.42;51.72
13050;BME280;6591;51.446;5.404;2023-04-25T00:49:06;100802.97;;;13.39;51.58
13050;BME280;6591;51.446;5.404;2023-04-25T00:51:34;100805.72;;;13.38;51.62
13050;BME280;6591;51.446;5.404;2023-04-25T00:54:01;100808.66;;;13.33;51.54
13050;BME280;6591;51.446;5.404;2023-04-25T00:56:28;100807.28;;;13.26;51.30
13050;BME280;6591;51.446;5.404;2023-04-25T00:58:56;100810.22;;;13.22;51.45
13050;BME280;6591;51.446;5.404;2023-04-25T01:01:24;100816.75;;;13.16;51.24
13050;BME280;6591;51.446;5.404;2023-04-25T01:03:53;100818.72;;;13.12;51.20
13050;BME280;6591;51.446;5.404;2023-04-25T01:06:21;100816.19;;;13.09;51.87
13050;BME280;6591;51.446;5.404;2023-04-25T01:08:49;100811.03;;;13.06;51.82
13050;BME280;6591;51.446;5.404;2023-04-25T01:11:16;100811.19;;;13.03;51.99
13050;BME280;6591;51.446;5.404;2023-04-25T01:13:43;100811.19;;;13.03;51.72
13050;BME280;6591;51.446;5.404;2023-04-25T01:16:11;100808.63;;;13.02;51.80
13050;BME280;6591;51.446;5.404;2023-04-25T01:18:42;100817.56;;;13.01;51.68
13050;BME280;6591;51.446;5.404;2023-04-25T01:21:11;100811.56;;;12.97;51.44
13050;BME280;6591;51.446;5.404;2023-04-25T01:23:41;100811.72;;;12.94;51.80
13050;BME280;6591;51.446;5.404;2023-04-25T01:26:11;100815.56;;;12.89;51.16
13050;BME280;6591;51.446;5.404;2023-04-25T01:28:40;100812.31;;;12.84;51.06
13050;BME280;6591;51.446;5.404;2023-04-25T01:31:12;100817.03;;;12.79;51.68
13050;BME280;6591;51.446;5.404;2023-04-25T01:33:39;100818.16;;;12.74;51.64
13050;BME280;6591;51.446;5.404;2023-04-25T01:36:06;100817.63;;;12.68;51.17
13050;BME280;6591;51.446;5.404;2023-04-25T01:38:35;100822.34;;;12.63;51.64
13050;BME280;6591;51.446;5.404;2023-04-25T01:41:02;100824.47;;;12.56;51.27
13050;BME280;6591;51.446;5.404;2023-04-25T01:43:29;100821.19;;;12.51;51.45
13050;BME280;6591;51.446;5.404;2023-04-25T01:45:57;100817.91;;;12.46;51.65
13050;BME280;6591;51.446;5.404;2023-04-25T01:48:24;100819.88;;;12.43;51.70
13050;BME280;6591;51.446;5.404;2023-04-25T01:50:51;100822.81;;;12.38;52.05
13050;BME280;6591;51.446;5.404;2023-04-25T01:53:18;100819.53;;;12.33;51.48
13050;BME280;6591;51.446;5.404;2023-04-25T01:55:46;100819.78;;;12.28;51.61
13050;BME280;6591;51.446;5.404;2023-04-25T01:58:15;100830.66;;;12.24;52.12
13050;BME280;6591;51.446;5.404;2023-04-25T02:00:57;100830.03;;;12.19;51.90
13050;BME280;6591;51.446;5.404;2023-04-25T02:03:32;100833.72;;;12.16;52.39
13050;BME280;6591;51.446;5.404;2023-04-25T02:06:02;100842.63;;;12.15;52.04
13050;BME280;6591;51.446;5.404;2023-04-25T02:08:31;100841.75;;;12.15;52.50
13050;BME280;6591;51.446;5.404;2023-04-25T02:10:58;100849.75;;;12.15;52.63
13050;BME280;6591;51.446;5.404;2023-04-25T02:13:31;100848.75;;;12.17;52.40
13050;BME280;6591;51.446;5.404;2023-04-25T02:16:21;100850.47;;;12.18;53.07
13050;BME280;6591;51.446;5.404;2023-04-25T02:18:48;100837.84;;;12.22;53.11
13050;BME280;6591;51.446;5.404;2023-04-25T02:21:15;100851.78;;;12.27;52.77
13050;BME280;6591;51.446;5.404;2023-04-25T02:23:43;100848.13;;;12.29;53.13
13050;BME280;6591;51.446;5.404;2023-04-25T02:26:12;100853.19;;;12.34;53.17
13050;BME280;6591;51.446;5.404;2023-04-25T02:28:42;100852.88;;;12.40;52.97
13050;BME280;6591;51.446;5.404;2023-04-25T02:31:09;100851.84;;;12.43;52.47
13050;BME280;6591;51.446;5.404;2023-04-25T02:33:36;100848.94;;;12.47;52.89
13050;BME280;6591;51.446;5.404;2023-04-25T02:36:05;100853.31;;;12.48;52.63
13050;BME280;6591;51.446;5.404;2023-04-25T02:38:32;100846.19;;;12.49;52.49
13050;BME280;6591;51.446;5.404;2023-04-25T02:40:59;100850.66;;;12.48;52.50
13050;BME280;6591;51.446;5.404;2023-04-25T02:43:26;100855.97;;;12.48;52.14
13050;BME280;6591;51.446;5.404;2023-04-25T02:45:53;100856.06;;;12.47;51.94
13050;BME280;6591;51.446;5.404;2023-04-25T02:48:20;100858.03;;;12.43;52.20
13050;BME280;6591;51.446;5.404;2023-04-25T02:50:48;100858.22;;;12.40;52.00
13050;BME280;6591;51.446;5.404;2023-04-25T02:53:15;100861.88;;;12.38;51.71
13050;BME280;6591;51.446;5.404;2023-04-25T02:55:47;100849.59;;;12.35;52.36
13050;BME280;6591;51.446;5.404;2023-04-25T02:58:14;100848.00;;;12.31;52.16
13050;BME280;6591;51.446;5.404;2023-04-25T03:00:45;100844.59;;;12.29;52.31
13050;BME280;6591;51.446;5.404;2023-04-25T03:03:13;100842.06;;;12.26;52.43
13050;BME280;6591;51.446;5.404;2023-04-25T03:05:40;100852.91;;;12.23;52.52
13050;BME280;6591;51.446;5.404;2023-04-25T03:08:07;100850.38;;;12.20;52.03
13050;BME280;6591;51.446;5.404;2023-04-25T03:10:36;100853.13;;;12.18;52.53
13050;BME280;6591;51.446;5.404;2023-04-25T03:13:06;100854.13;;;12.16;52.97
13050;BME280;6591;51.446;5.404;2023-04-25T03:15:34;100861.38;;;12.14;52.52
13050;BME280;6591;51.446;5.404;2023-04-25T03:18:02;100863.06;;;12.15;52.69
13050;BME280;6591;51.446;5.404;2023-04-25T03:20:29;100860.41;;;12.15;52.84
13050;BME280;6591;51.446;5.404;2023-04-25T03:22:57;100862.13;;;12.16;53.15
13050;BME280;6591;51.446;5.404;2023-04-25T03:25:24;100869.19;;;12.17;53.35
13050;BME280;6591;51.446;5.404;2023-04-25T03:27:51;100866.50;;;12.17;53.23
13050;BME280;6591;51.446;5.404;2023-04-25T03:30:18;100870.84;;;12.19;53.47
13050;BME280;6591;51.446;5.404;2023-04-25T03:32:45;100869.00;;;12.20;53.40
13050;BME280;6591;51.446;5.404;2023-04-25T03:35:15;100864.47;;;12.22;53.55
13050;BME280;6591;51.446;5.404;2023-04-25T03:37:42;100857.28;;;12.24;53.12
13050;BME280;6591;51.446;5.404;2023-04-25T03:40:17;100861.56;;;12.26;53.20
13050;BME280;6591;51.446;5.404;2023-04-25T03:43:07;100867.59;;;12.30;53.09
13050;BME280;6591;51.446;5.404;2023-04-25T03:45:35;100864.84;;;12.31;53.62
13050;BME280;6591;51.446;5.404;2023-04-25T03:48:03;100859.38;;;12.35;53.51
13050;BME280;6591;51.446;5.404;2023-04-25T03:50:30;100862.75;;;12.38;53.34
13050;BME280;6591;51.446;5.404;2023-04-25T03:52:57;100864.47;;;12.39;53.09
13050;BME280;6591;51.446;5.404;2023-04-25T03:55:26;100860.75;;;12.42;53.06
13050;BME280;6591;51.446;5.404;2023-04-25T03:57:53;100869.53;;;12.44;53.05
13050;BME280;6591;51.446;5.404;2023-04-25T04:00:21;100866.81;;;12.45;53.02
13050;BME280;6591;51.446;5.404;2023-04-25T04:02:51;100877.28;;;12.48;53.27
13050;BME280;6591;51.446;5.404;2023-04-25T04:05:19;100863.03;;;12.49;52.94
13050;BME280;6591;51.446;5.404;2023-04-25T04:07:53;100878.94;;;12.51;53.14
13050;BME280;6591;51.446;5.404;2023-04-25T04:10:22;100879.78;;;12.51;53.33
13050;BME280;6591;51.446;5.404;2023-04-25T04:12:49;100882.44;;;12.51;53.14
13050;BME280;6591;51.446;5.404;2023-04-25T04:15:16;100882.38;;;12.53;53.08
13050;BME280;6591;51.446;5.404;2023-04-25T04:17:45;100889.44;;;12.54;53.37
13050;BME280;6591;51.446;5.404;2023-04-25T04:20:14;100885.72;;;12.56;53.08
13050;BME280;6591;51.446;5.404;2023-04-25T04:22:41;100885.72;;;12.56;53.34
13050;BME280;6591;51.446;5.404;2023-04-25T04:25:11;100891.03;;;12.56;53.45
13050;BME280;6591;51.446;5.404;2023-04-25T04:27:58;100891.91;;;12.57;53.00
13050;BME280;6591;51.446;5.404;2023-04-25T04:30:45;100895.38;;;12.59;53.27
13050;BME280;6591;51.446;5.404;2023-04-25T04:33:13;100896.22;;;12.59;53.51
13050;BME280;6591;51.446;5.404;2023-04-25T04:35:43;100894.25;;;12.63;53.59
13050;BME280;6591;51.446;5.404;2023-04-25T04:38:11;100899.50;;;12.64;53.28
13050;BME280;6591;51.446;5.404;2023-04-25T04:40:38;100899.34;;;12.67;53.74
13050;BME280;6591;51.446;5.404;2023-04-25T04:43:11;100896.59;;;12.69;53.26
13050;BME280;6591;51.446;5.404;2023-04-25T04:45:57;100889.47;;;12.69;53.73
13050;BME280;6591;51.446;5.404;2023-04-25T04:48:38;100907.06;;;12.72;53.33
13050;BME280;6591;51.446;5.404;2023-04-25T04:51:21;100894.56;;;12.74;53.54
13050;BME280;6591;51.446;5.404;2023-04-25T04:53:54;100912.09;;;12.78;53.54
13050;BME280;6591;51.446;5.404;2023-04-25T04:56:48;100901.28;;;12.81;53.37
13050;BME280;6591;51.446;5.404;2023-04-25T04:59:28;100907.38;;;12.83;53.61
13050;BME280;6591;51.446;5.404;2023-04-25T05:02:18;100913.41;;;12.87;53.56
13050;BME280;6591;51.446;5.404;2023-04-25T05:05:05;100923.09;;;12.88;53.04
13050;BME280;6591;51.446;5.404;2023-04-25T05:07:55;100939.03;;;12.89;53.17
13050;BME280;6591;51.446;5.404;2023-04-25T05:10:40;100938.94;;;12.91;53.26
13050;BME280;6591;51.446;5.404;2023-04-25T05:13:43;100938.94;;;12.91;53.38
13050;BME280;6591;51.446;5.404;2023-04-25T05:16:18;100944.97;;;12.94;53.54
13050;BME280;6591;51.446;5.404;2023-04-25T05:18:56;100943.97;;;12.97;53.37
13050;BME280;6591;51.446;5.404;2023-04-25T05:21:32;100946.44;;;13.00;53.73
13050;BME280;6591;51.446;5.404;2023-04-25T05:24:17;100950.66;;;13.04;53.69
13050;BME280;6591;51.446;5.404;2023-04-25T05:26:50;100957.47;;;13.09;53.77
13050;BME280;6591;51.446;5.404;2023-04-25T05:29:46;100955.44;;;13.14;53.42
13050;BME280;6591;51.446;5.404;2023-04-25T05:32:21;100949.03;;;13.19;53.59
13050;BME280;6591;51.446;5.404;2023-04-25T05:34:50;100942.47;;;13.24;53.70
13050;BME280;6591;51.446;5.404;2023-04-25T05:37:23;100953.66;;;13.31;53.57
13050;BME280;6591;51.446;5.404;2023-04-25T05:39:55;100961.25;;;13.38;54.09
13050;BME280;6591;51.446;5.404;2023-04-25T05:42:40;100969.88;;;13.43;53.62
13050;BME280;6591;51.446;5.404;2023-04-25T05:45:27;100963.16;;;13.52;53.72
13050;BME280;6591;51.446;5.404;2023-04-25T05:48:03;100960.06;;;13.60;53.65
13050;BME280;6591;51.446;5.404;2023-04-25T05:51:02;100964.97;;;13.67;54.17
13050;BME280;6591;51.446;5.404;2023-04-25T05:53:59;100977.09;;;13.73;53.75
13050;BME280;6591;51.446;5.404;2023-04-25T05:56:26;100971.44;;;13.79;53.37
13050;BME280;6591;51.446;5.404;2023-04-25T05:58:54;100975.56;;;13.84;53.66
13050;BME280;6591;51.446;5.404;2023-04-25T06:01:22;100978.91;;;13.88;53.64
13050;BME280;6591;51.446;5.404;2023-04-25T06:03:50;100983.91;;;13.94;53.25
13050;BME280;6591;51.446;5.404;2023-04-25T06:06:20;100980.03;;;13.99;53.55
13050;BME280;6591;51.446;5.404;2023-04-25T06:08:47;100982.44;;;14.04;53.74
13050;BME280;6591;51.446;5.404;2023-04-25T06:11:14;100993.63;;;14.11;53.55
13050;BME280;6591;51.446;5.404;2023-04-25T06:13:41;100996.88;;;14.16;53.74
13050;BME280;6591;51.446;5.404;2023-04-25T06:16:08;101000.16;;;14.21;53.55
13050;BME280;6591;51.446;5.404;2023-04-25T06:18:35;100994.47;;;14.27;53.87
13050;BME280;6591;51.446;5.404;2023-04-25T06:21:02;101001.06;;;14.35;53.38
13050;BME280;6591;51.446;5.404;2023-04-25T06:23:30;100993.59;;;14.42;53.68
13050;BME280;6591;51.446;5.404;2023-04-25T06:26:02;100994.09;;;14.49;53.30
13050;BME280;6591;51.446;5.404;2023-04-25T06:28:30;101001.56;;;14.58;53.18
13050;BME280;6591;51.446;5.404;2023-04-25T06:30:57;101001.38;;;14.61;52.89
13050;BME280;6591;51.446;5.404;2023-04-25T06:33:24;101009.31;;;14.62;52.54
13050;BME280;6591;51.446;5.404;2023-04-25T06:35:53;101011.09;;;14.62;52.55
13050;BME280;6591;51.446;5.404;2023-04-25T06:38:24;101012.91;;;14.61;52.52
13050;BME280;6591;51.446;5.404;2023-04-25T06:40:52;101012.84;;;14.63;52.63
13050;BME280;6591;51.446;5.404;2023-04-25T06:43:19;101019.81;;;14.65;52.38
13050;BME280;6591;51.446;5.404;2023-04-25T06:46:24;101028.50;;;14.69;52.34
13050;BME280;6591;51.446;5.404;2023-04-25T06:48:53;101022.69;;;14.76;51.76
13050;BME280;6591;51.446;5.404;2023-04-25T06:51:21;101031.22;;;14.83;51.06
13050;BME280;6591;51.446;5.404;2023-04-25T06:53:54;101028.97;;;14.91;50.45
13050;BME280;6591;51.446;5.404;2023-04-25T06:56:30;101027.53;;;15.00;50.01
13050;BME280;6591;51.446;5.404;2023-04-25T06:59:08;101028.78;;;15.08;49.56
13050;BME280;6591;51.446;5.404;2023-04-25T07:01:37;101015.81;;;15.16;49.16
13050;BME280;6591;51.446;5.404;2023-04-25T07:04:09;101021.72;;;15.21;48.19
13050;BME280;6591;51.446;5.404;2023-04-25T07:06:42;101024.97;;;15.26;47.87
13050;BME280;6591;51.446;5.404;2023-04-25T07:09:11;101025.66;;;15.30;47.62
13050;BME280;6591;51.446;5.404;2023-04-25T07:11:39;101035.03;;;15.37;47.86
13050;BME280;6591;51.446;5.404;2023-04-25T07:14:06;101045.22;;;15.45;47.83
13050;BME280;6591;51.446;5.404;2023-04-25T07:16:33;101039.50;;;15.51;47.43
13050;BME280;6591;51.446;5.404;2023-04-25T07:19:01;101034.56;;;15.59;47.03
13050;BME280;6591;51.446;5.404;2023-04-25T07:21:28;101045.66;;;15.67;47.00
13050;BME280;6591;51.446;5.404;2023-04-25T07:24:00;101055.03;;;15.74;46.97
13050;BME280;6591;51.446;5.404;2023-04-25T07:26:32;101042.94;;;15.81;46.53
13050;BME280;6591;51.446;5.404;2023-04-25T07:29:16;101056.72;;;15.89;46.18
13050;BME280;6591;51.446;5.404;2023-04-25T07:31:43;101047.31;;;15.96;46.25
13050;BME280;6591;51.446;5.404;2023-04-25T07:34:10;101050.38;;;16.04;46.29
13050;BME280;6591;51.446;5.404;2023-04-25T07:36:38;101048.72;;;16.16;46.50
13050;BME280;6591;51.446;5.404;2023-04-25T07:39:05;101050.56;;;16.28;45.88
13050;BME280;6591;51.446;5.404;2023-04-25T07:41:33;101055.22;;;16.39;45.54
13050;BME280;6591;51.446;5.404;2023-04-25T07:44:00;101063.44;;;16.50;45.59
13050;BME280;6591;51.446;5.404;2023-04-25T07:46:30;101069.94;;;16.60;45.55
13050;BME280;6591;51.446;5.404;2023-04-25T07:48:57;101066.44;;;16.72;45.25
13050;BME280;6591;51.446;5.404;2023-04-25T07:51:24;101068.31;;;16.84;44.70
13050;BME280;6591;51.446;5.404;2023-04-25T07:53:54;101076.66;;;16.92;44.01
13050;BME280;6591;51.446;5.404;2023-04-25T07:56:21;101067.25;;;17.00;43.44
13050;BME280;6591;51.446;5.404;2023-04-25T07:58:49;101083.91;;;17.05;43.21
13050;BME280;6591;51.446;5.404;2023-04-25T08:01:18;101079.38;;;17.05;42.16
13050;BME280;6591;51.446;5.404;2023-04-25T08:03:55;101097.19;;;17.06;42.05
13050;BME280;6591;51.446;5.404;2023-04-25T08:06:33;101093.66;;;17.06;41.80
13050;BME280;6591;51.446;5.404;2023-04-25T08:09:11;101090.22;;;17.04;41.41
13050;BME280;6591;51.446;5.404;2023-04-25T08:11:41;101097.09;;;17.08;41.87
13050;BME280;6591;51.446;5.404;2023-04-25T08:14:12;101098.59;;;17.12;41.47
13050;BME280;6591;51.446;5.404;2023-04-25T08:16:41;101096.66;;;17.14;41.74
13050;BME280;6591;51.446;5.404;2023-04-25T08:19:09;101101.94;;;17.15;41.13
13050;BME280;6591;51.446;5.404;2023-04-25T08:21:38;101115.47;;;17.14;41.09
13050;BME280;6591;51.446;5.404;2023-04-25T08:24:10;101110.50;;;17.08;40.22
13050;BME280;6591;51.446;5.404;2023-04-25T08:26:39;101118.09;;;17.01;40.61
13050;BME280;6591;51.446;5.404;2023-04-25T08:29:09;101115.94;;;16.93;40.50
13050;BME280;6591;51.446;5.404;2023-04-25T08:31:39;101116.25;;;16.89;40.96
13050;BME280;6591;51.446;5.404;2023-04-25T08:34:07;101125.38;;;16.86;40.98
13050;BME280;6591;51.446;5.404;2023-04-25T08:36:42;101130.84;;;16.85;41.81
13050;BME280;6591;51.446;5.404;2023-04-25T08:39:32;101136.94;;;16.87;42.14
13050;BME280;6591;51.446;5.404;2023-04-25T08:42:22;101146.81;;;16.86;42.49
13050;BME280;6591;51.446;5.404;2023-04-25T08:44:53;101139.53;;;16.88;42.43
13050;BME280;6591;51.446;5.404;2023-04-25T08:47:23;101152.75;;;16.91;42.17
13050;BME280;6591;51.446;5.404;2023-04-25T08:49:56;101151.59;;;16.96;42.04
13050;BME280;6591;51.446;5.404;2023-04-25T08:52:27;101153.97;;;17.00;41.61
13050;BME280;6591;51.446;5.404;2023-04-25T08:54:58;101151.53;;;17.10;42.17
13050;BME280;6591;51.446;5.404;2023-04-25T08:57:31;101153.34;;;17.22;41.94
13050;BME280;6591;51.446;5.404;2023-04-25T08:59:59;101159.63;;;17.35;41.51
13050;BME280;6591;51.446;5.404;2023-04-25T09:02:32;101166.06;;;17.45;41.49
13050;BME280;6591;51.446;5.404;2023-04-25T09:05:03;101176.75;;;17.59;41.93
13050;BME280;6591;51.446;5.404;2023-04-25T09:07:31;101182.25;;;17.70;41.65
13050;BME280;6591;51.446;5.404;2023-04-25T09:10:00;101178.59;;;17.84;41.47
13050;BME280;6591;51.446;5.404;2023-04-25T09:12:35;101184.06;;;17.95;41.96
13050;BME280;6591;51.446;5.404;2023-04-25T09:15:11;101186.84;;;18.06;41.70
13050;BME280;6591;51.446;5.404;2023-04-25T09:18:06;101194.81;;;18.20;41.52
13050;BME280;6591;51.446;5.404;2023-04-25T09:20:43;101197.91;;;18.27;40.32
13050;BME280;6591;51.446;5.404;2023-04-25T09:23:28;101189.91;;;18.38;41.12
13050;BME280;6591;51.446;5.404;2023-04-25T09:25:55;101190.09;;;18.48;40.72
13050;BME280;6591;51.446;5.404;2023-04-25T09:28:26;101200.88;;;18.60;40.84
13050;BME280;6591;51.446;5.404;2023-04-25T09:30:58;101201.59;;;18.75;40.34
13050;BME280;6591;51.446;5.404;2023-04-25T09:33:33;101205.19;;;18.87;39.85
13050;BME280;6591;51.446;5.404;2023-04-25T09:36:09;101198.63;;;18.91;38.32
13050;BME280;6591;51.446;5.404;2023-04-25T09:38:47;101201.81;;;18.96;38.38
13050;BME280;6591;51.446;5.404;2023-04-25T09:41:24;101209.69;;;18.99;38.44
13050;BME280;6591;51.446;5.404;2023-04-25T09:43:57;101205.03;;;19.01;38.34
13050;BME280;6591;51.446;5.404;2023-04-25T09:46:34;101210.81;;;19.08;38.72
13050;BME280;6591;51.446;5.404;2023-04-25T09:49:20;101217.22;;;19.18;38.98
13050;BME280;6591;51.446;5.404;2023-04-25T09:52:04;101218.34;;;19.26;38.80
13050;BME280;6591;51.446;5.404;2023-04-25T09:54:41;101222.22;;;19.35;38.77
13050;BME280;6591;51.446;5.404;2023-04-25T09:57:22;101212.41;;;19.34;37.87
13050;BME280;6591;51.446;5.404;2023-04-25T09:59:55;101213.28;;;19.34;37.80
13050;BME280;6591;51.446;5.404;2023-04-25T10:02:26;101220.38;;;19.35;37.59
13050;BME280;6591;51.446;5.404;2023-04-25T10:05:05;101215.59;;;19.39;38.01
13050;BME280;6591;51.446;5.404;2023-04-25T10:07:38;101218.59;;;19.47;37.29
13050;BME280;6591;51.446;5.404;2023-04-25T10:10:13;101218.13;;;19.53;37.70
13050;BME280;6591;51.446;5.404;2023-04-25T10:12:40;101212.16;;;19.61;37.52
13050;BME280;6591;51.446;5.404;2023-04-25T10:15:12;101211.34;;;19.71;37.91
13050;BME280;6591;51.446;5.404;2023-04-25T10:17:40;101224.88;;;19.94;38.16
13050;BME280;6591;51.446;5.404;2023-04-25T10:20:08;101212.72;;;20.10;37.49
13050;BME280;6591;51.446;5.404;2023-04-25T10:22:42;101214.72;;;20.19;37.26
13050;BME280;6591;51.446;5.404;2023-04-25T10:25:11;101215.91;;;20.26;37.53
13050;BME280;6591;51.446;5.404;2023-04-25T10:27:39;101214.94;;;20.27;36.31
13050;BME280;6591;51.446;5.404;2023-04-25T10:30:13;101226.22;;;20.21;35.50
13050;BME280;6591;51.446;5.404;2023-04-25T10:32:43;101215.09;;;20.15;35.61
13050;BME280;6591;51.446;5.404;2023-04-25T10:35:25;101217.78;;;20.04;35.63
13050;BME280;6591;51.446;5.404;2023-04-25T10:38:13;101224.72;;;19.95;35.33
13050;BME280;6591;51.446;5.404;2023-04-25T10:40:41;101230.25;;;19.94;35.57
13050;BME280;6591;51.446;5.404;2023-04-25T10:43:43;101226.03;;;19.78;35.09
13050;BME280;6591;51.446;5.404;2023-04-25T10:46:25;101223.59;;;19.75;34.88
13050;BME280;6591;51.446;5.404;2023-04-25T10:49:02;101224.44;;;19.76;35.41
13050;BME280;6591;51.446;5.404;2023-04-25T10:51:34;101225.44;;;19.86;35.89
13050;BME280;6591;51.446;5.404;2023-04-25T10:54:22;101227.41;;;19.95;35.56
13050;BME280;6591;51.446;5.404;2023-04-25T10:56:52;101230.13;;;19.95;35.18
13050;BME280;6591;51.446;5.404;2023-04-25T10:59:20;101224.22;;;19.90;35.18
13050;BME280;6591;51.446;5.404;2023-04-25T11:01:52;101234.66;;;19.83;34.82
13050;BME280;6591;51.446;5.404;2023-04-25T11:04:29;101224.69;;;19.73;35.13
13050;BME280;6591;51.446;5.404;2023-04-25T11:07:44;101236.66;;;19.69;35.90
13050;BME280;6591;51.446;5.404;2023-04-25T11:10:11;101225.44;;;19.86;36.99
13050;BME280;6591;51.446;5.404;2023-04-25T11:12:38;101228.31;;;20.07;36.99
13050;BME280;6591;51.446;5.404;2023-04-25T11:15:07;101227.47;;;20.28;37.21
13050;BME280;6591;51.446;5.404;2023-04-25T11:17:34;101226.75;;;20.49;36.84
13050;BME280;6591;51.446;5.404;2023-04-25T11:20:02;101228.69;;;20.58;35.12
13050;BME280;6591;51.446;5.404;2023-04-25T11:22:34;101237.78;;;20.57;35.01
13050;BME280;6591;51.446;5.404;2023-04-25T11:25:12;101241.22;;;20.37;34.31
13050;BME280;6591;51.446;5.404;2023-04-25T11:27:54;101241.31;;;20.13;34.07
13050;BME280;6591;51.446;5.404;2023-04-25T11:30:24;101242.97;;;19.92;34.30
13050;BME280;6591;51.446;5.404;2023-04-25T11:32:52;101251.75;;;19.71;35.00
13050;BME280;6591;51.446;5.404;2023-04-25T11:35:20;101266.50;;;19.55;35.61
13050;BME280;6591;51.446;5.404;2023-04-25T11:37:49;101269.94;;;19.33;34.94
13050;BME280;6591;51.446;5.404;2023-04-25T11:40:17;101275.44;;;19.08;34.43
13050;BME280;6591;51.446;5.404;2023-04-25T11:42:46;101281.84;;;18.81;35.01
13050;BME280;6591;51.446;5.404;2023-04-25T11:45:14;101284.03;;;18.63;35.89
13050;BME280;6591;51.446;5.404;2023-04-25T11:47:42;101290.28;;;18.51;35.71
13050;BME280;6591;51.446;5.404;2023-04-25T11:50:09;101283.59;;;18.44;35.82
13050;BME280;6591;51.446;5.404;2023-04-25T11:52:44;101277.69;;;18.39;35.70
13050;BME280;6591;51.446;5.404;2023-04-25T11:55:19;101273.72;;;18.32;35.40
13050;BME280;6591;51.446;5.404;2023-04-25T11:57:49;101287.16;;;18.32;35.77
13050;BME280;6591;51.446;5.404;2023-04-25T12:00:21;101279.84;;;18.34;35.80
13050;BME280;6591;51.446;5.404;2023-04-25T12:02:54;101282.84;;;18.42;36.02
13050;BME280;6591;51.446;5.404;2023-04-25T12:05:30;101264.91;;;18.55;36.15
13050;BME280;6591;51.446;5.404;2023-04-25T12:08:14;101283.94;;;18.65;35.76
13050;BME280;6591;51.446;5.404;2023-04-25T12:10:45;101279.84;;;18.72;35.79
13050;BME280;6591;51.446;5.404;2023-04-25T12:13:26;101285.44;;;18.69;35.53
13050;BME280;6591;51.446;5.404;2023-04-25T12:15:55;101284.56;;;18.69;35.88
13050;BME280;6591;51.446;5.404;2023-04-25T12:18:24;101286.53;;;18.67;35.82
13050;BME280;6591;51.446;5.404;2023-04-25T12:20:55;101289.84;;;18.70;36.62
13050;BME280;6591;51.446;5.404;2023-04-25T12:23:28;101289.50;;;18.75;36.44
13050;BME280;6591;51.446;5.404;2023-04-25T12:25:57;101290.56;;;18.85;36.31
13050;BME280;6591;51.446;5.404;2023-04-25T12:28:25;101289.78;;;18.95;36.56
13050;BME280;6591;51.446;5.404;2023-04-25T12:31:05;101283.84;;;19.03;36.50
13050;BME280;6591;51.446;5.404;2023-04-25T12:33:37;101284.94;;;19.24;37.14
13050;BME280;6591;51.446;5.404;2023-04-25T12:36:06;101291.97;;;19.51;37.37
13050;BME280;6591;51.446;5.404;2023-04-25T12:38:40;101283.13;;;19.72;36.75
13050;BME280;6591;51.446;5.404;2023-04-25T12:41:08;101289.56;;;19.94;36.29
13050;BME280;6591;51.446;5.404;2023-04-25T12:43:35;101286.75;;;20.06;35.88
13050;BME280;6591;51.446;5.404;2023-04-25T12:46:03;101296.81;;;20.15;34.63
13050;BME280;6591;51.446;5.404;2023-04-25T12:48:30;101299.00;;;20.10;33.81
13050;BME280;6591;51.446;5.404;2023-04-25T12:50:57;101299.13;;;19.98;33.60
13050;BME280;6591;51.446;5.404;2023-04-25T12:53:23;101302.03;;;19.83;33.87
13050;BME280;6591;51.446;5.404;2023-04-25T12:55:51;101303.81;;;19.72;34.29
13050;BME280;6591;51.446;5.404;2023-04-25T12:58:19;101305.25;;;19.65;33.91
13050;BME280;6591;51.446;5.404;2023-04-25T13:00:47;101309.50;;;19.56;33.50
13050;BME280;6591;51.446;5.404;2023-04-25T13:03:14;101308.81;;;19.41;32.49
13050;BME280;6591;51.446;5.404;2023-04-25T13:05:42;101308.94;;;19.27;32.51
13050;BME280;6591;51.446;5.404;2023-04-25T13:08:09;101304.59;;;19.14;32.76
13050;BME280;6591;51.446;5.404;2023-04-25T13:10:36;101313.34;;;19.04;33.27
13050;BME280;6591;51.446;5.404;2023-04-25T13:13:05;101321.00;;;18.98;33.30
13050;BME280;6591;51.446;5.404;2023-04-25T13:15:32;101316.81;;;18.94;33.14
13050;BME280;6591;51.446;5.404;2023-04-25T13:17:59;101324.13;;;18.92;33.30
13050;BME280;6591;51.446;5.404;2023-04-25T13:20:26;101325.22;;;18.89;33.61
13050;BME280;6591;51.446;5.404;2023-04-25T13:22:53;101314.69;;;18.86;33.53
13050;BME280;6591;51.446;5.404;2023-04-25T13:25:20;101313.81;;;18.86;33.44